createdAt,value
2018-04-18T00:00:35.183Z,99.90
2018-04-18T00:03:02.879Z,99.90
2018-04-18T00:05:30.547Z,99.90
2018-04-18T00:07:58.188Z,99.90
2018-04-18T00:10:25.870Z,99.90
2018-04-18T00:12:53.517Z,99.90
2018-04-18T00:15:21.196Z,99.90
2018-04-18T00:17:49.639Z,99.90
2018-04-18T00:20:17.300Z,99.90
2018-04-18T00:22:44.928Z,99.90
2018-04-18T00:25:12.572Z,99.90
2018-04-18T00:27:40.992Z,99.90
2018-04-18T00:30:08.689Z,99.90
2018-04-18T00:32:37.123Z,99.90
2018-04-18T00:35:04.786Z,99.90
2018-04-18T00:37:32.508Z,99.50
2018-04-18T00:40:00.970Z,97.70
2018-04-18T00:42:29.426Z,95.60
2018-04-18T00:44:57.059Z,95.50
2018-04-18T00:47:25.436Z,96.10
2018-04-18T00:49:53.098Z,96.30
2018-04-18T00:52:20.840Z,96.30
2018-04-18T00:54:48.526Z,96.00
2018-04-18T00:57:16.186Z,95.00
2018-04-18T00:59:43.886Z,95.10
2018-04-18T01:02:11.664Z,95.10
2018-04-18T01:04:40.494Z,95.50
2018-04-18T01:07:08.150Z,95.20
2018-04-18T01:09:35.812Z,94.30
2018-04-18T01:12:03.438Z,94.40
2018-04-18T01:14:31.068Z,94.20
2018-04-18T01:16:58.690Z,93.50
2018-04-18T01:19:26.382Z,93.40
2018-04-18T01:21:54.025Z,92.90
2018-04-18T01:24:21.721Z,92.30
2018-04-18T01:26:49.415Z,93.60
2018-04-18T01:29:17.137Z,94.50
2018-04-18T01:31:44.791Z,96.00
2018-04-18T01:34:12.528Z,95.40
2018-04-18T01:36:40.195Z,95.10
2018-04-18T01:39:07.846Z,94.30
2018-04-18T01:41:35.486Z,94.00
2018-04-18T01:44:03.122Z,94.50
2018-04-18T01:46:30.852Z,94.50
2018-04-18T01:49:10.458Z,94.40
2018-04-18T01:51:38.136Z,94.30
2018-04-18T01:54:05.770Z,93.50
2018-04-18T01:56:33.440Z,93.60
2018-04-18T01:59:01.045Z,93.50
2018-04-18T02:01:28.766Z,93.10
2018-04-18T02:03:56.442Z,92.10
2018-04-18T02:06:24.095Z,92.60
2018-04-18T02:08:51.772Z,92.20
2018-04-18T02:11:19.389Z,91.90
2018-04-18T02:13:47.809Z,92.20
2018-04-18T02:16:15.448Z,92.20
2018-04-18T02:18:43.067Z,92.20
2018-04-18T02:21:10.691Z,91.90
2018-04-18T02:23:38.385Z,91.80
2018-04-18T02:26:06.022Z,92.20
2018-04-18T02:28:34.535Z,93.20
2018-04-18T02:31:02.581Z,93.30
2018-04-18T02:33:31.033Z,93.30
2018-04-18T02:35:58.712Z,93.20
2018-04-18T02:38:27.163Z,92.90
2018-04-18T02:40:54.809Z,92.90
2018-04-18T02:43:22.480Z,92.80
2018-04-18T02:45:50.168Z,92.80
2018-04-18T02:48:19.124Z,92.80
2018-04-18T02:50:46.787Z,92.70
2018-04-18T02:53:15.762Z,92.70
2018-04-18T02:55:43.405Z,93.20
2018-04-18T02:58:11.073Z,92.70
2018-04-18T03:00:38.793Z,92.70
2018-04-18T03:03:07.304Z,92.50
2018-04-18T03:05:34.974Z,92.50
2018-04-18T03:08:02.649Z,92.10
2018-04-18T03:10:30.324Z,92.50
2018-04-18T03:12:57.992Z,92.50
2018-04-18T03:15:25.750Z,92.60
2018-04-18T03:17:53.415Z,92.50
2018-04-18T03:20:21.069Z,92.90
2018-04-18T03:22:49.515Z,93.30
2018-04-18T03:25:17.949Z,93.80
2018-04-18T03:27:45.648Z,93.70
2018-04-18T03:30:13.295Z,93.80
2018-04-18T03:32:40.980Z,94.70
2018-04-18T03:35:08.639Z,94.50
2018-04-18T03:37:37.204Z,94.50
2018-04-18T03:40:04.931Z,94.40
2018-04-18T03:42:33.393Z,94.80
2018-04-18T03:45:01.063Z,94.70
2018-04-18T03:47:28.700Z,94.70
2018-04-18T03:49:56.358Z,94.80
2018-04-18T03:52:24.014Z,94.40
2018-04-18T03:54:51.666Z,94.60
2018-04-18T03:57:19.360Z,94.50
2018-04-18T03:59:47.582Z,94.40
2018-04-18T04:02:15.248Z,94.70
2018-04-18T04:04:42.832Z,94.30
2018-04-18T04:07:10.464Z,94.40
2018-04-18T04:09:38.106Z,94.00
2018-04-18T04:12:05.743Z,94.60
2018-04-18T04:14:33.391Z,94.30
2018-04-18T04:17:12.746Z,94.80
2018-04-18T04:19:52.917Z,95.30
2018-04-18T04:22:32.329Z,95.30
2018-04-18T04:25:00.774Z,95.30
2018-04-18T04:27:28.369Z,95.40
2018-04-18T04:29:56.773Z,94.80
2018-04-18T04:32:24.419Z,94.70
2018-04-18T04:34:52.054Z,94.70
2018-04-18T04:37:19.720Z,94.70
2018-04-18T04:39:47.368Z,94.50
2018-04-18T04:42:14.929Z,95.40
2018-04-18T04:44:42.552Z,95.50
2018-04-18T04:47:10.186Z,95.60
2018-04-18T04:49:37.828Z,95.30
2018-04-18T04:52:05.462Z,95.50
2018-04-18T04:54:33.151Z,95.20
2018-04-18T04:57:00.799Z,94.90
2018-04-18T04:59:28.405Z,95.20
2018-04-18T05:01:56.036Z,95.20
2018-04-18T05:04:23.648Z,95.30
2018-04-18T05:06:51.226Z,95.40
2018-04-18T05:09:18.842Z,95.10
2018-04-18T05:11:46.466Z,94.50
2018-04-18T05:14:14.184Z,94.60
2018-04-18T05:16:41.834Z,94.50
2018-04-18T05:19:09.565Z,93.80
2018-04-18T05:21:37.158Z,94.50
2018-04-18T05:24:05.600Z,95.20
2018-04-18T05:26:33.411Z,94.80
2018-04-18T05:29:01.096Z,95.50
2018-04-18T05:31:29.534Z,95.10
2018-04-18T05:33:57.216Z,95.10
2018-04-18T05:36:24.851Z,94.80
2018-04-18T05:38:52.494Z,93.50
2018-04-18T05:41:20.141Z,93.80
2018-04-18T05:43:47.765Z,93.50
2018-04-18T05:46:15.466Z,94.10
2018-04-18T05:48:43.083Z,92.50
2018-04-18T05:51:10.729Z,93.30
2018-04-18T05:53:38.386Z,93.10
2018-04-18T05:56:06.856Z,93.70
2018-04-18T05:58:34.511Z,93.70
2018-04-18T06:01:02.141Z,93.80
2018-04-18T06:03:30.275Z,94.10
2018-04-18T06:05:57.967Z,94.10
2018-04-18T06:08:25.624Z,93.90
2018-04-18T06:10:53.260Z,93.90
2018-04-18T06:13:20.894Z,93.40
2018-04-18T06:15:48.524Z,92.80
2018-04-18T06:18:16.208Z,92.10
2018-04-18T06:20:43.834Z,93.50
2018-04-18T06:23:11.487Z,93.30
2018-04-18T06:25:39.095Z,93.00
2018-04-18T06:28:07.123Z,92.70
2018-04-18T06:30:34.876Z,93.90
2018-04-18T06:33:02.508Z,94.00
2018-04-18T06:35:30.128Z,94.00
2018-04-18T06:37:57.808Z,93.90
2018-04-18T06:40:25.503Z,94.70
2018-04-18T06:42:53.139Z,94.00
2018-04-18T06:45:20.780Z,93.40
2018-04-18T06:47:48.381Z,93.20
2018-04-18T06:50:16.017Z,92.30
2018-04-18T06:52:44.476Z,90.00
2018-04-18T06:55:12.160Z,89.90
2018-04-18T06:57:39.788Z,88.20
2018-04-18T07:00:07.467Z,83.80
2018-04-18T07:02:35.102Z,86.30
2018-04-18T07:05:02.778Z,85.50
2018-04-18T07:07:30.395Z,86.30
2018-04-18T07:09:58.009Z,86.00
2018-04-18T07:12:25.731Z,87.00
2018-04-18T07:14:53.366Z,87.40
2018-04-18T07:17:22.602Z,86.10
2018-04-18T07:19:50.225Z,86.00
2018-04-18T07:22:17.856Z,81.10
2018-04-18T07:24:45.499Z,80.70
2018-04-18T07:27:13.145Z,80.90
2018-04-18T07:29:40.786Z,78.50
2018-04-18T07:32:08.419Z,82.70
2018-04-18T07:34:36.085Z,80.10
2018-04-18T07:37:03.880Z,79.80
2018-04-18T07:39:31.518Z,77.90
2018-04-18T07:41:59.161Z,77.10
2018-04-18T07:44:26.847Z,74.70
2018-04-18T07:46:54.528Z,75.00
2018-04-18T07:49:22.302Z,75.00
2018-04-18T07:51:49.930Z,70.30
2018-04-18T07:54:17.581Z,67.90
2018-04-18T07:56:45.215Z,65.90
2018-04-18T07:59:13.737Z,64.40
2018-04-18T08:01:41.428Z,64.30
2018-04-18T08:04:09.088Z,64.90
2018-04-18T08:06:36.721Z,64.50
2018-04-18T08:09:04.369Z,67.60
2018-04-18T08:11:32.036Z,67.70
2018-04-18T08:13:59.653Z,66.50
2018-04-18T08:16:27.277Z,67.10
2018-04-18T08:18:54.932Z,64.80
2018-04-18T08:21:22.589Z,62.60
2018-04-18T08:23:50.271Z,60.60
2018-04-18T08:26:17.854Z,61.60
2018-04-18T08:28:46.234Z,61.20
2018-04-18T08:31:14.634Z,59.70
2018-04-18T08:33:42.275Z,59.70
2018-04-18T08:36:09.906Z,62.70
2018-04-18T08:38:37.529Z,60.70
2018-04-18T08:41:05.106Z,58.20
2018-04-18T08:43:32.748Z,58.30
2018-04-18T08:46:00.452Z,59.90
2018-04-18T08:48:28.086Z,58.30
2018-04-18T08:50:55.710Z,56.30
2018-04-18T08:53:23.338Z,62.50
2018-04-18T08:55:51.012Z,59.30
2018-04-18T08:58:18.617Z,63.20
2018-04-18T09:00:46.306Z,60.50
2018-04-18T09:03:13.973Z,60.60
2018-04-18T09:05:49.129Z,60.20
2018-04-18T09:08:17.522Z,61.70
2018-04-18T09:10:45.213Z,61.70
2018-04-18T09:13:12.878Z,58.30
2018-04-18T09:15:40.523Z,62.10
2018-04-18T09:18:08.139Z,59.20
2018-04-18T09:20:35.793Z,60.40
2018-04-18T09:23:03.428Z,60.00
2018-04-18T09:25:31.042Z,58.10
2018-04-18T09:27:58.697Z,57.20
2018-04-18T09:30:26.316Z,58.50
2018-04-18T09:32:53.950Z,56.90
2018-04-18T09:35:21.642Z,57.10
2018-04-18T09:37:49.334Z,58.20
2018-04-18T09:40:16.971Z,58.80
2018-04-18T09:42:44.582Z,58.70
2018-04-18T09:45:12.307Z,59.20
2018-04-18T09:47:39.941Z,58.80
2018-04-18T09:50:07.657Z,58.80
2018-04-18T09:52:35.334Z,57.20
2018-04-18T09:55:02.984Z,57.50
2018-04-18T09:57:31.460Z,55.40
2018-04-18T09:59:59.062Z,55.30
2018-04-18T10:02:29.501Z,53.70
2018-04-18T10:05:03.628Z,52.40
2018-04-18T10:07:31.315Z,52.10
2018-04-18T10:09:58.977Z,54.70
2018-04-18T10:12:26.640Z,54.70
2018-04-18T10:14:54.305Z,53.60
2018-04-18T10:17:21.922Z,53.80
2018-04-18T10:19:50.366Z,58.10
2018-04-18T10:22:18.002Z,58.20
2018-04-18T10:24:45.667Z,54.40
2018-04-18T10:27:13.258Z,53.90
2018-04-18T10:29:40.941Z,57.40
2018-04-18T10:32:08.569Z,56.50
2018-04-18T10:34:37.378Z,53.80
2018-04-18T10:37:05.011Z,53.80
2018-04-18T10:39:32.619Z,54.30
2018-04-18T10:42:00.297Z,56.10
2018-04-18T10:44:27.973Z,55.90
2018-04-18T10:46:55.566Z,54.30
2018-04-18T10:49:23.209Z,53.20
2018-04-18T10:51:50.930Z,54.40
2018-04-18T10:54:18.616Z,52.80
2018-04-18T10:56:46.277Z,52.80
2018-04-18T10:59:13.900Z,51.50
2018-04-18T11:01:41.522Z,53.00
2018-04-18T11:04:09.083Z,54.20
2018-04-18T11:06:37.524Z,53.20
2018-04-18T11:09:06.106Z,53.10
2018-04-18T11:11:33.771Z,52.70
2018-04-18T11:14:01.416Z,51.30
2018-04-18T11:16:29.336Z,51.20
2018-04-18T11:18:56.894Z,51.90
2018-04-18T11:21:24.567Z,51.40
2018-04-18T11:23:52.150Z,51.60
2018-04-18T11:26:19.850Z,50.10
2018-04-18T11:28:47.503Z,53.80
2018-04-18T11:31:15.277Z,56.20
2018-04-18T11:33:42.991Z,52.00
2018-04-18T11:36:10.621Z,52.00
2018-04-18T11:38:38.275Z,51.80
2018-04-18T11:41:05.898Z,48.90
2018-04-18T11:43:33.554Z,53.00
2018-04-18T11:46:01.191Z,48.40
2018-04-18T11:48:28.876Z,50.10
2018-04-18T11:50:56.563Z,49.40
2018-04-18T11:53:24.230Z,48.50
2018-04-18T11:55:51.863Z,49.20
2018-04-18T11:58:19.450Z,47.90
2018-04-18T12:00:47.131Z,44.80
2018-04-18T12:03:15.169Z,47.70
2018-04-18T12:05:42.891Z,49.40
2018-04-18T12:08:10.524Z,48.80
2018-04-18T12:10:38.904Z,50.30
2018-04-18T12:13:07.196Z,50.30
2018-04-18T12:15:34.831Z,47.60
2018-04-18T12:18:02.463Z,46.90
2018-04-18T12:20:30.134Z,48.40
2018-04-18T12:22:58.786Z,46.70
2018-04-18T12:25:26.455Z,46.70
2018-04-18T12:27:54.129Z,44.20
2018-04-18T12:30:23.533Z,48.20
2018-04-18T12:32:51.189Z,48.10
2018-04-18T12:35:18.867Z,45.60
2018-04-18T12:37:46.546Z,45.40
2018-04-18T12:40:14.264Z,47.90
2018-04-18T12:42:41.918Z,48.20
2018-04-18T12:45:09.588Z,47.30
2018-04-18T12:47:37.244Z,48.80
2018-04-18T12:50:04.983Z,45.70
2018-04-18T12:52:32.658Z,46.30
2018-04-18T12:55:00.368Z,45.10
2018-04-18T12:57:28.110Z,43.50
2018-04-18T12:59:55.712Z,43.50
2018-04-18T13:02:23.355Z,42.90
2018-04-18T13:04:51.828Z,42.80
2018-04-18T13:07:19.416Z,42.90
2018-04-18T13:09:48.969Z,42.80
2018-04-18T13:12:16.600Z,43.80
2018-04-18T13:14:44.444Z,45.60
2018-04-18T13:17:12.273Z,44.40
2018-04-18T13:19:40.773Z,43.80
2018-04-18T13:22:09.229Z,46.30
2018-04-18T13:24:36.888Z,46.20
2018-04-18T13:27:04.563Z,43.50
2018-04-18T13:29:32.355Z,46.50
2018-04-18T13:32:00.473Z,46.30
2018-04-18T13:34:28.257Z,45.00
2018-04-18T13:36:56.730Z,44.90
2018-04-18T13:39:24.398Z,44.90
2018-04-18T13:41:52.065Z,44.10
2018-04-18T13:44:23.074Z,43.30
2018-04-18T13:46:50.744Z,47.10
2018-04-18T13:49:18.360Z,43.80
2018-04-18T13:51:47.228Z,44.40
2018-04-18T13:54:14.832Z,41.00
2018-04-18T13:56:42.544Z,46.00
2018-04-18T13:59:10.319Z,44.00
2018-04-18T14:01:38.003Z,42.40
2018-04-18T14:04:05.674Z,45.40
2018-04-18T14:06:33.394Z,44.90
2018-04-18T14:09:01.136Z,42.60
2018-04-18T14:14:03.681Z,44.30
2018-04-18T14:16:31.393Z,46.10
2018-04-18T14:18:59.055Z,43.20
2018-04-18T14:21:26.839Z,45.10
2018-04-18T14:23:54.489Z,45.10
2018-04-18T14:26:23.306Z,45.50
2018-04-18T14:28:50.962Z,42.90
2018-04-18T14:31:18.584Z,44.30
2018-04-18T14:33:50.229Z,43.90
2018-04-18T14:36:17.938Z,45.30
2018-04-18T14:38:45.701Z,47.10
2018-04-18T14:41:13.419Z,45.70
2018-04-18T14:43:41.630Z,45.30
2018-04-18T14:46:09.811Z,45.00
2018-04-18T14:48:37.587Z,44.50
2018-04-18T14:51:05.301Z,44.10
2018-04-18T14:53:33.746Z,44.40
2018-04-18T14:56:01.434Z,44.40
2018-04-18T14:58:29.140Z,43.70
2018-04-18T15:00:56.831Z,44.70
2018-04-18T15:03:24.522Z,44.20
2018-04-18T15:05:52.195Z,44.00
2018-04-18T15:08:20.694Z,43.70
2018-04-18T15:10:50.895Z,43.70
2018-04-18T15:13:18.667Z,43.20
2018-04-18T15:15:47.267Z,42.30
2018-04-18T15:18:23.899Z,42.40
2018-04-18T15:20:53.151Z,44.30
2018-04-18T15:23:21.697Z,45.00
2018-04-18T15:25:51.493Z,43.60
2018-04-18T15:28:19.174Z,42.90
2018-04-18T15:30:49.491Z,43.00
2018-04-18T15:33:17.200Z,42.10
2018-04-18T15:35:44.895Z,41.60
2018-04-18T15:38:14.248Z,41.20
2018-04-18T15:40:42.665Z,41.10
2018-04-18T15:43:10.398Z,39.70
2018-04-18T15:45:38.002Z,41.10
2018-04-18T15:48:07.135Z,39.20
2018-04-18T15:50:35.154Z,39.40
2018-04-18T15:53:03.024Z,40.30
2018-04-18T15:58:13.434Z,39.80
2018-04-18T16:00:41.246Z,42.00
2018-04-18T16:03:08.995Z,42.20
2018-04-18T16:05:36.670Z,41.50
2018-04-18T16:08:05.610Z,41.50
2018-04-18T16:10:33.894Z,42.40
2018-04-18T16:13:03.630Z,39.50
2018-04-18T16:15:31.286Z,40.00
2018-04-18T16:17:59.082Z,39.20
2018-04-18T16:20:26.744Z,40.70
2018-04-18T16:22:55.505Z,41.00
2018-04-18T16:28:00.339Z,43.00
2018-04-18T16:30:46.604Z,42.70
2018-04-18T16:33:18.835Z,41.50
2018-04-18T16:38:25.013Z,40.20
2018-04-18T16:40:54.537Z,39.70
2018-04-18T16:43:30.040Z,42.20
2018-04-18T16:45:58.621Z,43.40
2018-04-18T16:48:32.191Z,43.40
2018-04-18T16:51:01.809Z,46.10
2018-04-18T16:53:29.561Z,42.90
2018-04-18T16:55:57.237Z,43.50
2018-04-18T16:58:24.858Z,43.50
2018-04-18T17:00:55.441Z,41.20
2018-04-18T17:03:23.198Z,40.60
2018-04-18T17:05:50.839Z,42.00
2018-04-18T17:08:19.423Z,43.20
2018-04-18T17:10:48.186Z,43.20
2018-04-18T17:13:16.552Z,42.70
2018-04-18T17:15:46.114Z,41.20
2018-04-18T17:18:14.135Z,43.70
2018-04-18T17:20:42.053Z,44.10
2018-04-18T17:23:11.267Z,45.50
2018-04-18T17:25:54.039Z,45.20
2018-04-18T17:28:22.869Z,46.00
2018-04-18T17:30:50.784Z,46.20
2018-04-18T17:33:18.698Z,47.40
2018-04-18T17:35:46.462Z,49.30
2018-04-18T17:38:14.351Z,48.10
2018-04-18T17:40:50.829Z,47.00
2018-04-18T17:43:20.757Z,46.80
2018-04-18T17:45:48.768Z,46.70
2018-04-18T17:48:25.726Z,47.10
2018-04-18T17:50:55.492Z,47.20
2018-04-18T17:56:26.863Z,47.40
2018-04-18T17:58:56.838Z,47.90
2018-04-18T18:01:30.731Z,48.80
2018-04-18T18:04:00.118Z,49.20
2018-04-18T18:06:29.210Z,49.70
2018-04-18T18:08:57.632Z,52.00
2018-04-18T18:11:25.291Z,51.60
2018-04-18T18:13:52.987Z,50.80
2018-04-18T18:16:20.613Z,51.00
2018-04-18T18:18:48.298Z,51.00
2018-04-18T18:21:15.957Z,50.50
2018-04-18T18:23:43.666Z,51.60
2018-04-18T18:26:11.415Z,50.50
2018-04-18T18:28:39.157Z,51.60
2018-04-18T18:31:06.854Z,52.50
2018-04-18T18:33:35.272Z,54.60
2018-04-18T18:36:02.973Z,53.70
2018-04-18T18:38:30.725Z,54.90
2018-04-18T18:40:58.434Z,54.80
2018-04-18T18:43:26.150Z,54.20
2018-04-18T18:45:54.672Z,54.50
2018-04-18T18:48:22.396Z,54.20
2018-04-18T18:50:57.090Z,55.70
2018-04-18T18:53:24.870Z,57.60
2018-04-18T18:55:52.603Z,60.10
2018-04-18T18:58:21.970Z,62.70
2018-04-18T19:00:49.699Z,62.70
2018-04-18T19:03:17.455Z,62.20
2018-04-18T19:05:45.689Z,62.40
2018-04-18T19:08:13.448Z,62.30
2018-04-18T19:10:41.880Z,62.40
2018-04-18T19:13:11.946Z,62.40
2018-04-18T19:15:39.788Z,61.30
2018-04-18T19:18:07.431Z,61.60
2018-04-18T19:20:35.098Z,61.30
2018-04-18T19:23:02.835Z,62.30
2018-04-18T19:25:30.580Z,62.40
2018-04-18T19:27:58.326Z,63.50
2018-04-18T19:30:27.068Z,66.30
2018-04-18T19:32:55.620Z,65.60
2018-04-18T19:35:23.465Z,65.60
2018-04-18T19:37:51.225Z,65.30
2018-04-18T19:40:18.968Z,65.20
2018-04-18T19:42:46.685Z,65.60
2018-04-18T19:45:14.359Z,66.10
2018-04-18T19:47:43.035Z,67.60
2018-04-18T19:50:10.803Z,67.40
2018-04-18T19:52:39.349Z,67.70
2018-04-18T19:55:07.081Z,67.50
2018-04-18T19:57:35.640Z,68.40
2018-04-18T20:00:03.465Z,67.90
2018-04-18T20:02:32.193Z,69.20
2018-04-18T20:04:59.930Z,69.00
2018-04-18T20:07:27.678Z,67.80
2018-04-18T20:09:55.535Z,67.60
2018-04-18T20:12:23.200Z,69.00
2018-04-18T20:14:50.879Z,69.10
2018-04-18T20:17:18.661Z,69.10
2018-04-18T20:19:46.582Z,69.40
2018-04-18T20:22:14.317Z,72.60
2018-04-18T20:24:42.079Z,75.40
2018-04-18T20:27:09.984Z,76.70
2018-04-18T20:29:37.718Z,77.50
2018-04-18T20:32:05.447Z,77.90
2018-04-18T20:34:33.261Z,77.30
2018-04-18T20:37:00.989Z,78.10
2018-04-18T20:39:30.382Z,78.70
2018-04-18T20:41:58.526Z,78.70
2018-04-18T20:44:26.724Z,77.70
2018-04-18T20:46:55.186Z,75.20
2018-04-18T20:49:22.945Z,78.20
2018-04-18T20:51:51.270Z,78.50
2018-04-18T20:54:19.058Z,78.50
2018-04-18T20:56:46.780Z,78.50
2018-04-18T20:59:15.259Z,77.40
2018-04-18T21:01:42.983Z,77.40
2018-04-18T21:04:17.377Z,78.30
2018-04-18T21:06:45.187Z,76.90
2018-04-18T21:09:12.859Z,77.80
2018-04-18T21:11:40.867Z,78.70
2018-04-18T21:14:08.779Z,80.30
2018-04-18T21:16:36.599Z,79.90
2018-04-18T21:19:05.524Z,80.30
2018-04-18T21:21:33.279Z,81.60
2018-04-18T21:24:01.059Z,81.00
2018-04-18T21:26:31.115Z,82.10
2018-04-18T21:28:59.094Z,80.80
2018-04-18T21:31:27.191Z,79.50
2018-04-18T21:33:54.936Z,80.80
2018-04-18T21:36:22.745Z,81.30
2018-04-18T21:38:51.589Z,79.90
2018-04-18T21:41:19.619Z,79.60
2018-04-18T21:43:48.322Z,79.60
2018-04-18T21:46:16.778Z,78.00
2018-04-18T21:48:45.758Z,78.00
2018-04-18T21:51:13.497Z,80.20
2018-04-18T21:53:41.998Z,79.30
2018-04-18T21:56:09.786Z,77.90
2018-04-18T21:58:37.680Z,80.00
2018-04-18T22:01:06.450Z,78.20
2018-04-18T22:03:34.228Z,78.00
2018-04-18T22:06:03.745Z,78.30
2018-04-18T22:08:31.737Z,78.40
2018-04-18T22:11:06.544Z,78.60
2018-04-18T22:13:34.197Z,79.20
2018-04-18T22:16:03.560Z,78.10
2018-04-18T22:18:32.591Z,79.20
2018-04-18T22:21:00.450Z,77.60
2018-04-18T22:23:29.448Z,80.20
2018-04-18T22:25:57.438Z,79.10
2018-04-18T22:28:26.611Z,80.00
2018-04-18T22:30:57.061Z,80.30
2018-04-18T22:33:27.549Z,81.30
2018-04-18T22:35:55.277Z,81.60
2018-04-18T22:38:23.224Z,80.70
2018-04-18T22:40:53.218Z,75.80
2018-04-18T22:43:21.072Z,77.40
2018-04-18T22:45:48.810Z,74.30
2018-04-18T22:48:16.681Z,74.50
2018-04-18T22:50:44.438Z,74.10
2018-04-18T22:53:12.189Z,72.80
2018-04-18T22:55:41.855Z,71.50
2018-04-18T22:58:09.555Z,71.70
2018-04-18T23:00:37.999Z,73.30
2018-04-18T23:03:05.809Z,73.50
2018-04-18T23:05:33.526Z,72.50
2018-04-18T23:08:02.471Z,71.50
2018-04-18T23:10:31.173Z,70.80
2018-04-18T23:12:58.845Z,71.10
2018-04-18T23:15:26.525Z,70.70
2018-04-18T23:17:55.191Z,71.50
2018-04-18T23:20:22.902Z,69.70
2018-04-18T23:22:50.576Z,70.70
2018-04-18T23:25:19.087Z,69.90
2018-04-18T23:27:46.776Z,69.80
2018-04-18T23:30:14.389Z,70.00
2018-04-18T23:32:42.055Z,68.70
2018-04-18T23:35:10.509Z,68.20
2018-04-18T23:37:38.224Z,68.30
2018-04-18T23:40:05.951Z,68.10
2018-04-18T23:42:33.692Z,68.30
2018-04-18T23:45:01.444Z,67.80
2018-04-18T23:47:29.218Z,66.70
2018-04-18T23:49:56.900Z,66.60
2018-04-18T23:52:24.608Z,67.60
2018-04-18T23:54:52.245Z,65.50
2018-04-18T23:57:20.699Z,65.90
2018-04-18T23:59:48.890Z,66.20
